Huvudsida
METAR-TAF:

METAR-TAF

Flygplatser :

Pointe-à-Pitre Le Raizet Airport

Pointe-à-Pitre, Guadeloupe

latitud: 16-16N, longitud: 061-31W, höjd: 11 m

Aktuellt väderrapport

Denna rapport gjordes för 30 minuter sedan, klockan 09:00 UTC
Vind 8 kt från ost
Temperatur 24°C
Fuktighet 78%
Tryck 1018 hPa
Sikt 10 km eller mer
Få moln på en höjd av 4400 ft

METAR: TFFR 160900Z AUTO 10008KT 9999 FEW044 24/20 Q1018 TEMPO 10015G25KT

Tid: 05:30 (09:30 UTC)

Väderprognos

Denna rapport gjordes för 4 timmar och 30 minuter sedan, klockan 05:00 UTC
Prognos gäller från 16 kl. 06 UTC till 17 kl. 06 UTC
Vind 3 kt varierande vindriktning
Sikt 10 km eller mer
Spridda moln på en höjd av 2500 ft
Spridda moln på en höjd av 6000 ft
Sannolikhet 30% :
Temporärt
från 16 kl. 10 UTC till 16 kl. 16 UTC
Vind 15 kt från ost i byarna ända upp till 25 kt
Blir
från 16 kl. 10 UTC till 16 kl. 12 UTC
Vind 10 kt från ost

TAF: TFFR 160500Z 1606/1706 VRB03KT 9999 SCT025 SCT060 PROB30 TEMPO 1610/1616 10015G25KT BECMG 1610/1612 10010KT

Aktuella väderrapporter och prognoser från 4000 flygplatser (METAR- och TAF-rapporter).

De tillgängliga stationerna syns som gula och röda prickar på kartan.

För musen över prickarna för att se namnen på stationerna.

Klicka sedan för att få väderrapporter och prognoser.

För att ändra kartan: Klicka på de gröna knapparna med ett svart kors på för att zooma in; den gröna knappen med ett streck på för att zooma ut; eller på de gröna pilarna för angränsande kartor.


METAR-TAF: